Cosco Melbourne — V7IF5 — position and weather

sailwx.info

Track history (hours):
 
Tides and Currents Weather Stations Pressure Air Temp Water Temp Dewpoint Dewpoint Depression Visibility Wind Speed Wind Dir Waves Ship Positions

Cosco Melbourne

Last reported at 2016-Dec-03 00:12 UTC. Time now 2016-Dec-03 04:35 UTC.
Position N 01°14' E 104°03'.

Type: Ship (hazmat cat A). MMSI: 538002366.

Date/timePositionNaut miles runAvg speedWind from/ knotsBaromVisibWave heightAir tempDewpointWater temp
2016-Dec-03 00:12N 01°14' E 104°03'1217.1
2016-Dec-02 23:30N 01°12' E 103°52'8 9.0
2016-Dec-02 22:33N 01°17' E 103°45'2 1.3
2016-Dec-02 21:24N 01°17' E 103°46'0 0.0
2016-Dec-02 20:24N 01°17' E 103°46'0 0.0
2016-Dec-02 19:30N 01°17' E 103°46'0 0.0
2016-Dec-02 18:32N 01°17' E 103°46'0 0.0
2016-Dec-02 17:29N 01°17' E 103°46'0 0.0
2016-Dec-02 16:28N 01°17' E 103°46'0 0.0
2016-Dec-02 15:28N 01°17' E 103°46'0 0.0
2016-Dec-02 14:33N 01°17' E 103°46'0 0.0
2016-Dec-02 13:21N 01°17' E 103°46'0 0.1
2016-Dec-02 12:32N 01°17' E 103°46'0 0.0
2016-Dec-02 11:14N 01°17' E 103°46'0 0.0
2016-Dec-02 10:32N 01°17' E 103°46'0 0.0
2016-Dec-02 09:25N 01°17' E 103°46'0 0.0
2016-Dec-02 08:28N 01°17' E 103°46'0 0.0
2016-Dec-02 07:33N 01°17' E 103°46'2 1.7
2016-Dec-02 06:30N 01°15' E 103°47'8 6.7
2016-Dec-02 05:21N 01°14' E 103°54'3 2.9
2016-Dec-02 04:24N 01°15' E 103°57'  
2016-Nov-23 06:16N 38°31' E 121°02'  
Track history (hours):
 
Tides and Currents Weather Stations Pressure Air Temp Water Temp Dewpoint Dewpoint Depression Visibility Wind Speed Wind Dir Waves Ship Positions

Cosco Melbourne

Last reported at 2016-Dec-03 00:12 UTC. Time now 2016-Dec-03 04:35 UTC.
Position N 01°14' E 104°03'.

Type: Ship (hazmat cat A). MMSI: 538002366.

Date/timePositionNaut miles runAvg speedWind from/ knotsBaromVisibWave heightAir tempDewpointWater temp
2016-Dec-03 00:12N 01°14' E 104°03'1217.1
2016-Dec-02 23:30N 01°12' E 103°52'8 9.0
2016-Dec-02 22:33N 01°17' E 103°45'2 1.3
2016-Dec-02 21:24N 01°17' E 103°46'0 0.0
2016-Dec-02 20:24N 01°17' E 103°46'0 0.0
2016-Dec-02 19:30N 01°17' E 103°46'0 0.0
2016-Dec-02 18:32N 01°17' E 103°46'0 0.0
2016-Dec-02 17:29N 01°17' E 103°46'0 0.0
2016-Dec-02 16:28N 01°17' E 103°46'0 0.0
2016-Dec-02 15:28N 01°17' E 103°46'0 0.0
2016-Dec-02 14:33N 01°17' E 103°46'0 0.0
2016-Dec-02 13:21N 01°17' E 103°46'0 0.1
2016-Dec-02 12:32N 01°17' E 103°46'0 0.0
2016-Dec-02 11:14N 01°17' E 103°46'0 0.0
2016-Dec-02 10:32N 01°17' E 103°46'0 0.0
2016-Dec-02 09:25N 01°17' E 103°46'0 0.0
2016-Dec-02 08:28N 01°17' E 103°46'0 0.0
2016-Dec-02 07:33N 01°17' E 103°46'2 1.7
2016-Dec-02 06:30N 01°15' E 103°47'8 6.7
2016-Dec-02 05:21N 01°14' E 103°54'3 2.9
2016-Dec-02 04:24N 01°15' E 103°57'  
2016-Nov-23 06:16N 38°31' E 121°02'  

Dump ship's entire track history